createdAt,value
2018-05-18T00:00:11.637Z,13.20
2018-05-18T00:02:39.189Z,13.00
2018-05-18T00:05:06.757Z,13.20
2018-05-18T00:07:34.242Z,13.20
2018-05-18T00:10:02.470Z,12.90
2018-05-18T00:12:29.924Z,12.90
2018-05-18T00:14:57.429Z,13.10
2018-05-18T00:17:24.909Z,13.10
2018-05-18T00:19:53.131Z,13.20
2018-05-18T00:22:20.591Z,13.20
2018-05-18T00:24:48.098Z,13.10
2018-05-18T00:27:15.560Z,13.10
2018-05-18T00:29:43.104Z,13.00
2018-05-18T00:32:10.579Z,13.00
2018-05-18T00:34:38.036Z,13.10
2018-05-18T00:37:05.547Z,13.20
2018-05-18T00:39:34.029Z,12.90
2018-05-18T00:42:01.507Z,13.10
2018-05-18T00:44:28.969Z,12.90
2018-05-18T00:46:56.437Z,12.80
2018-05-18T00:49:23.931Z,12.80
2018-05-18T00:51:51.498Z,12.50
2018-05-18T00:54:18.943Z,12.60
2018-05-18T00:56:46.404Z,12.50
2018-05-18T00:59:13.876Z,12.70
2018-05-18T01:01:41.447Z,12.80
2018-05-18T01:04:09.017Z,12.30
2018-05-18T01:06:36.474Z,12.50
2018-05-18T01:09:03.959Z,12.40
2018-05-18T01:11:32.178Z,12.50
2018-05-18T01:13:59.634Z,12.50
2018-05-18T01:16:27.150Z,12.70
2018-05-18T01:18:54.629Z,12.40
2018-05-18T01:21:22.859Z,12.30
2018-05-18T01:23:50.441Z,12.30
2018-05-18T01:26:17.897Z,12.30
2018-05-18T01:28:45.474Z,12.30
2018-05-18T01:31:13.694Z,12.30
2018-05-18T01:33:41.220Z,12.30
2018-05-18T01:36:08.701Z,12.50
2018-05-18T01:38:36.942Z,12.40
2018-05-18T01:41:04.417Z,12.40
2018-05-18T01:43:31.892Z,12.40
2018-05-18T01:46:00.627Z,12.30
2018-05-18T01:48:28.077Z,12.30
2018-05-18T01:50:55.547Z,12.20
2018-05-18T01:53:23.033Z,11.60
2018-05-18T01:55:50.616Z,12.00
2018-05-18T01:58:18.082Z,11.80
2018-05-18T02:00:45.629Z,12.00
2018-05-18T02:03:13.105Z,11.70
2018-05-18T02:05:40.569Z,12.00
2018-05-18T02:08:08.044Z,12.20
2018-05-18T02:10:36.286Z,12.30
2018-05-18T02:13:03.739Z,12.30
2018-05-18T02:15:31.199Z,12.20
2018-05-18T02:17:58.679Z,11.80
2018-05-18T02:20:26.156Z,11.90
2018-05-18T02:22:53.609Z,11.90
2018-05-18T02:25:21.081Z,12.00
2018-05-18T02:27:48.546Z,11.80
2018-05-18T02:30:16.022Z,11.90
2018-05-18T02:32:44.249Z,11.90
2018-05-18T02:35:11.727Z,11.90
2018-05-18T02:37:39.309Z,11.80
2018-05-18T02:40:06.765Z,11.80
2018-05-18T02:42:34.229Z,11.70
2018-05-18T02:45:01.690Z,11.80
2018-05-18T02:47:29.151Z,11.50
2018-05-18T02:49:56.629Z,11.30
2018-05-18T02:52:24.490Z,11.60
2018-05-18T02:54:51.953Z,11.60
2018-05-18T02:57:19.436Z,11.60
2018-05-18T02:59:47.664Z,11.50
2018-05-18T03:02:15.131Z,11.50
2018-05-18T03:04:42.621Z,11.60
2018-05-18T03:07:10.844Z,11.20
2018-05-18T03:09:38.304Z,11.20
2018-05-18T03:12:05.802Z,11.40
2018-05-18T03:14:33.281Z,11.50
2018-05-18T03:17:00.733Z,11.50
2018-05-18T03:19:28.292Z,11.60
2018-05-18T03:21:55.764Z,11.50
2018-05-18T03:24:23.243Z,11.50
2018-05-18T03:26:51.469Z,11.00
2018-05-18T03:29:18.955Z,11.00
2018-05-18T03:31:46.538Z,11.20
2018-05-18T03:34:13.988Z,11.60
2018-05-18T03:36:41.461Z,11.70
2018-05-18T03:39:08.921Z,11.40
2018-05-18T03:41:37.256Z,11.60
2018-05-18T03:44:04.739Z,11.60
2018-05-18T03:46:32.188Z,11.90
2018-05-18T03:48:59.660Z,11.90
2018-05-18T03:51:27.128Z,11.90
2018-05-18T03:53:54.601Z,11.90
2018-05-18T03:56:22.166Z,11.40
2018-05-18T03:58:50.006Z,11.40
2018-05-18T04:01:29.328Z,11.50
2018-05-18T04:04:08.917Z,11.40
2018-05-18T04:06:48.207Z,11.40
2018-05-18T04:09:16.403Z,11.10
2018-05-18T04:11:43.856Z,11.10
2018-05-18T04:14:12.401Z,11.00
2018-05-18T04:16:40.745Z,11.00
2018-05-18T04:19:08.330Z,11.00
2018-05-18T04:21:35.792Z,10.90
2018-05-18T04:24:03.249Z,10.90
2018-05-18T04:26:30.707Z,11.10
2018-05-18T04:28:58.932Z,11.30
2018-05-18T04:31:26.404Z,11.30
2018-05-18T04:33:54.360Z,11.30
2018-05-18T04:36:21.871Z,11.10
2018-05-18T04:38:49.439Z,11.00
2018-05-18T04:41:16.914Z,11.10
2018-05-18T04:43:44.380Z,11.00
2018-05-18T04:46:11.919Z,11.10
2018-05-18T04:48:39.392Z,11.20
2018-05-18T04:51:06.876Z,11.20
2018-05-18T04:53:35.108Z,11.20
2018-05-18T04:56:02.597Z,11.20
2018-05-18T04:58:30.068Z,11.10
2018-05-18T05:00:57.531Z,11.10
2018-05-18T05:03:25.798Z,11.00
2018-05-18T05:05:53.278Z,11.00
2018-05-18T05:08:20.811Z,11.10
2018-05-18T05:10:48.382Z,11.10
2018-05-18T05:13:15.843Z,11.00
2018-05-18T05:15:43.391Z,11.10
2018-05-18T05:18:10.981Z,11.10
2018-05-18T05:20:39.583Z,10.90
2018-05-18T05:23:07.032Z,11.10
2018-05-18T05:25:35.996Z,11.10
2018-05-18T05:28:03.465Z,11.10
2018-05-18T05:30:31.046Z,11.20
2018-05-18T05:32:58.613Z,11.20
2018-05-18T05:35:26.077Z,11.00
2018-05-18T05:37:53.620Z,10.80
2018-05-18T05:40:21.192Z,11.00
2018-05-18T05:42:48.651Z,11.00
2018-05-18T05:45:16.225Z,11.10
2018-05-18T05:47:43.668Z,11.20
2018-05-18T05:50:11.134Z,11.10
2018-05-18T05:52:38.612Z,11.10
2018-05-18T05:55:06.080Z,11.10
2018-05-18T05:57:33.627Z,11.20
2018-05-18T06:00:01.084Z,11.20
2018-05-18T06:02:28.559Z,11.30
2018-05-18T06:04:56.020Z,11.40
2018-05-18T06:07:24.262Z,11.10
2018-05-18T06:09:51.757Z,11.10
2018-05-18T06:12:19.301Z,11.20
2018-05-18T06:14:46.756Z,11.30
2018-05-18T06:17:14.238Z,11.30
2018-05-18T06:19:41.729Z,11.40
2018-05-18T06:22:09.202Z,11.40
2018-05-18T06:24:37.431Z,11.50
2018-05-18T06:27:05.384Z,11.50
2018-05-18T06:29:32.870Z,11.50
2018-05-18T06:32:00.327Z,11.50
2018-05-18T06:34:27.790Z,11.50
2018-05-18T06:36:55.258Z,11.50
2018-05-18T06:39:22.707Z,11.50
2018-05-18T06:41:50.167Z,11.40
2018-05-18T06:44:18.463Z,11.50
2018-05-18T06:46:45.950Z,11.40
2018-05-18T06:49:13.379Z,11.50
2018-05-18T06:51:40.849Z,11.60
2018-05-18T06:54:08.295Z,11.70
2018-05-18T06:56:35.781Z,11.70
2018-05-18T06:59:03.240Z,11.70
2018-05-18T07:01:30.717Z,11.70
2018-05-18T07:03:58.200Z,11.60
2018-05-18T07:06:26.409Z,11.70
2018-05-18T07:08:53.905Z,11.70
2018-05-18T07:11:21.360Z,11.60
2018-05-18T07:13:48.836Z,11.70
2018-05-18T07:16:16.307Z,11.70
2018-05-18T07:18:43.781Z,11.70
2018-05-18T07:21:12.000Z,11.60
2018-05-18T07:23:39.473Z,11.60
2018-05-18T07:26:06.962Z,11.60
2018-05-18T07:28:34.416Z,11.50
2018-05-18T07:31:01.889Z,11.60
2018-05-18T07:33:30.668Z,11.70
2018-05-18T07:35:58.139Z,11.90
2018-05-18T07:38:25.605Z,11.90
2018-05-18T07:40:53.065Z,11.90
2018-05-18T07:43:20.607Z,11.90
2018-05-18T07:45:48.076Z,11.80
2018-05-18T07:48:15.539Z,11.90
2018-05-18T07:50:42.996Z,12.00
2018-05-18T07:53:10.469Z,11.90
2018-05-18T07:55:38.039Z,11.90
2018-05-18T07:58:05.593Z,11.90
2018-05-18T08:00:33.166Z,11.80
2018-05-18T08:03:00.650Z,11.80
2018-05-18T08:05:28.886Z,11.70
2018-05-18T08:07:56.368Z,11.70
2018-05-18T08:10:23.799Z,11.80
2018-05-18T08:12:51.385Z,12.00
2018-05-18T08:15:18.856Z,12.10
2018-05-18T08:17:46.421Z,12.00
2018-05-18T08:20:13.877Z,11.80
2018-05-18T08:22:41.342Z,11.70
2018-05-18T08:25:08.809Z,11.80
2018-05-18T08:27:36.372Z,11.90
2018-05-18T08:30:04.533Z,12.00
2018-05-18T08:32:32.015Z,12.00
2018-05-18T08:34:59.491Z,11.90
2018-05-18T08:37:27.729Z,12.10
2018-05-18T08:39:55.983Z,12.10
2018-05-18T08:42:23.447Z,12.20
2018-05-18T08:44:50.912Z,12.30
2018-05-18T08:47:18.371Z,12.40
2018-05-18T08:49:45.881Z,12.40
2018-05-18T08:52:13.352Z,12.10
2018-05-18T08:54:41.596Z,12.30
2018-05-18T08:57:09.065Z,12.30
2018-05-18T08:59:36.523Z,12.30
2018-05-18T09:02:03.983Z,12.30
2018-05-18T09:04:31.452Z,12.40
2018-05-18T09:06:58.914Z,12.40
2018-05-18T09:09:26.393Z,12.30
2018-05-18T09:11:53.853Z,12.40
2018-05-18T09:14:21.331Z,12.40
2018-05-18T09:16:48.784Z,12.60
2018-05-18T09:19:16.331Z,12.50
2018-05-18T09:21:43.799Z,12.40
2018-05-18T09:24:11.251Z,12.40
2018-05-18T09:26:38.830Z,12.40
2018-05-18T09:29:06.305Z,12.40
2018-05-18T09:31:33.767Z,12.50
2018-05-18T09:34:01.257Z,12.40
2018-05-18T09:36:28.709Z,12.50
2018-05-18T09:38:56.938Z,12.40
2018-05-18T09:41:24.417Z,12.40
2018-05-18T09:43:53.379Z,12.50
2018-05-18T09:46:21.044Z,12.50
2018-05-18T09:48:48.535Z,12.60
2018-05-18T09:51:15.993Z,12.60
2018-05-18T09:53:43.456Z,12.50
2018-05-18T09:56:10.925Z,12.70
2018-05-18T09:58:38.397Z,12.70
2018-05-18T10:01:05.863Z,12.60
2018-05-18T10:03:33.325Z,12.50
2018-05-18T10:06:00.780Z,12.50
2018-05-18T10:08:28.266Z,12.60
2018-05-18T10:10:55.773Z,12.60
2018-05-18T10:13:23.248Z,12.70
2018-05-18T10:15:50.824Z,12.70
2018-05-18T10:18:18.389Z,12.60
2018-05-18T10:20:45.870Z,12.70
2018-05-18T10:23:14.143Z,12.50
2018-05-18T10:25:42.411Z,12.60
2018-05-18T10:28:09.889Z,12.50
2018-05-18T10:30:38.153Z,12.40
2018-05-18T10:33:05.720Z,12.40
2018-05-18T10:35:33.178Z,12.50
2018-05-18T10:38:00.640Z,12.60
2018-05-18T10:40:28.119Z,12.60
2018-05-18T10:42:56.351Z,12.80
2018-05-18T10:45:23.833Z,12.80
2018-05-18T10:47:51.417Z,12.70
2018-05-18T10:50:18.883Z,12.70
2018-05-18T10:52:46.433Z,12.70
2018-05-18T10:55:13.916Z,13.10
2018-05-18T10:57:41.453Z,12.90
2018-05-18T11:00:08.929Z,13.20
2018-05-18T11:02:36.492Z,13.20
2018-05-18T11:05:03.959Z,13.00
2018-05-18T11:07:31.530Z,13.10
2018-05-18T11:09:59.130Z,13.10
2018-05-18T11:12:26.635Z,13.30
2018-05-18T11:14:54.093Z,13.40
2018-05-18T11:17:22.322Z,13.70
2018-05-18T11:19:49.788Z,13.70
2018-05-18T11:22:17.254Z,13.70
2018-05-18T11:24:44.712Z,13.80
2018-05-18T11:27:12.184Z,13.80
2018-05-18T11:29:39.667Z,13.70
2018-05-18T11:32:07.132Z,13.70
2018-05-18T11:34:34.591Z,13.80
2018-05-18T11:37:02.067Z,13.50
2018-05-18T11:39:29.523Z,13.70
2018-05-18T11:41:56.987Z,13.70
2018-05-18T11:44:24.473Z,13.50
2018-05-18T11:46:52.707Z,13.60
2018-05-18T11:49:20.179Z,13.60
2018-05-18T11:51:47.646Z,13.60
2018-05-18T11:54:15.112Z,13.50
2018-05-18T11:56:42.677Z,13.50
2018-05-18T11:59:11.405Z,13.60
2018-05-18T12:01:39.656Z,13.80
2018-05-18T12:04:07.211Z,13.80
2018-05-18T12:06:34.680Z,13.50
2018-05-18T12:09:02.143Z,13.60
2018-05-18T12:11:29.601Z,13.60
2018-05-18T12:13:57.071Z,13.60
2018-05-18T12:16:24.521Z,13.90
2018-05-18T12:18:51.992Z,13.90
2018-05-18T12:21:19.475Z,14.00
2018-05-18T12:23:47.737Z,13.90
2018-05-18T12:26:15.264Z,13.90
2018-05-18T12:28:42.647Z,14.10
2018-05-18T12:31:10.116Z,13.60
2018-05-18T12:33:37.582Z,13.70
2018-05-18T12:36:05.031Z,13.60
2018-05-18T12:38:32.714Z,14.00
2018-05-18T12:41:00.272Z,13.70
2018-05-18T12:43:27.739Z,13.80
2018-05-18T12:45:55.218Z,14.00
2018-05-18T12:48:23.450Z,14.00
2018-05-18T12:50:50.924Z,13.90
2018-05-18T12:53:18.400Z,14.20
2018-05-18T12:55:45.963Z,14.20
2018-05-18T12:58:13.437Z,14.20
2018-05-18T13:00:40.884Z,14.20
2018-05-18T13:03:08.453Z,14.60
2018-05-18T13:05:36.381Z,14.60
2018-05-18T13:08:03.885Z,14.60
2018-05-18T13:10:31.370Z,14.30
2018-05-18T13:12:59.590Z,14.00
2018-05-18T13:15:27.079Z,14.00
2018-05-18T13:17:54.657Z,14.40
2018-05-18T13:20:22.241Z,14.30
2018-05-18T13:22:50.458Z,14.30
2018-05-18T13:25:17.925Z,14.20
2018-05-18T13:27:45.372Z,14.40
2018-05-18T13:30:12.855Z,14.80
2018-05-18T13:32:40.333Z,14.50
2018-05-18T13:35:07.804Z,14.80
2018-05-18T13:37:35.265Z,15.00
2018-05-18T13:40:02.827Z,14.90
2018-05-18T13:42:30.304Z,15.10
2018-05-18T13:44:57.964Z,14.80
2018-05-18T13:47:26.164Z,14.90
2018-05-18T13:49:54.411Z,14.60
2018-05-18T13:52:21.993Z,14.60
2018-05-18T13:54:50.951Z,14.70
2018-05-18T13:57:18.579Z,14.70
2018-05-18T13:59:46.811Z,14.60
2018-05-18T14:02:14.276Z,14.60
2018-05-18T14:04:41.761Z,14.70
2018-05-18T14:07:09.230Z,15.00
2018-05-18T14:09:36.700Z,15.10
2018-05-18T14:12:05.042Z,14.50
2018-05-18T14:14:32.567Z,14.50
2018-05-18T14:17:00.039Z,15.00
2018-05-18T14:19:27.545Z,15.20
2018-05-18T14:21:55.019Z,14.80
2018-05-18T14:24:22.475Z,14.80
2018-05-18T14:26:50.053Z,14.50
2018-05-18T14:29:17.512Z,14.60
2018-05-18T14:31:47.548Z,15.20
2018-05-18T14:34:15.872Z,15.00
2018-05-18T14:36:43.377Z,15.00
2018-05-18T14:39:11.641Z,14.20
2018-05-18T14:41:39.101Z,14.20
2018-05-18T14:44:06.570Z,14.50
2018-05-18T14:46:34.038Z,14.50
2018-05-18T14:49:02.271Z,14.50
2018-05-18T14:51:29.746Z,14.50
2018-05-18T14:53:57.338Z,14.70
2018-05-18T14:56:24.950Z,14.40
2018-05-18T14:58:52.570Z,14.90
2018-05-18T15:01:20.075Z,15.00
2018-05-18T15:03:47.557Z,15.30
2018-05-18T15:06:15.048Z,15.10
2018-05-18T15:08:42.523Z,14.90
2018-05-18T15:11:10.119Z,14.80
2018-05-18T15:13:37.670Z,14.40
2018-05-18T15:16:05.907Z,14.50
2018-05-18T15:18:33.372Z,14.50
2018-05-18T15:21:00.985Z,14.30
2018-05-18T15:23:28.519Z,14.80
2018-05-18T15:25:56.602Z,14.90
2018-05-18T15:28:24.120Z,14.90
2018-05-18T15:30:51.636Z,15.10
2018-05-18T15:33:19.872Z,14.50
2018-05-18T15:35:47.453Z,14.50
2018-05-18T15:38:14.928Z,14.40
2018-05-18T15:40:43.210Z,14.80
2018-05-18T15:43:12.453Z,14.40
2018-05-18T15:45:39.912Z,14.40
2018-05-18T15:48:07.388Z,14.60
2018-05-18T15:50:34.882Z,14.60
2018-05-18T15:53:03.125Z,14.40
2018-05-18T15:55:30.684Z,14.40
2018-05-18T15:57:58.167Z,14.40
2018-05-18T16:00:26.620Z,14.70
2018-05-18T16:02:54.130Z,14.60
2018-05-18T16:05:22.431Z,14.50
2018-05-18T16:07:49.886Z,14.50
2018-05-18T16:10:17.389Z,15.00
2018-05-18T16:12:44.872Z,15.10
2018-05-18T16:15:12.363Z,15.40
2018-05-18T16:17:39.869Z,15.10
2018-05-18T16:20:08.106Z,15.10
2018-05-18T16:22:35.634Z,15.10
2018-05-18T16:25:03.110Z,14.80
2018-05-18T16:27:30.581Z,14.50
2018-05-18T16:29:58.038Z,15.10
2018-05-18T16:32:25.573Z,14.90
2018-05-18T16:34:53.043Z,14.90
2018-05-18T16:37:20.552Z,14.70
2018-05-18T16:39:48.453Z,15.00
2018-05-18T16:42:16.678Z,14.60
2018-05-18T16:44:44.282Z,14.60
2018-05-18T16:47:12.564Z,15.50
2018-05-18T16:49:40.842Z,15.10
2018-05-18T16:52:08.874Z,15.10
2018-05-18T16:54:36.385Z,14.90
2018-05-18T16:57:04.724Z,14.60
2018-05-18T16:59:32.487Z,14.60
2018-05-18T17:02:00.032Z,14.90
2018-05-18T17:04:27.543Z,15.10
2018-05-18T17:06:55.830Z,14.90
2018-05-18T17:09:23.339Z,14.90
2018-05-18T17:11:51.693Z,14.40
2018-05-18T17:14:19.187Z,14.10
2018-05-18T17:16:46.656Z,14.40
2018-05-18T17:19:14.907Z,14.40
2018-05-18T17:21:42.419Z,14.40
2018-05-18T17:24:09.876Z,14.30
2018-05-18T17:26:37.455Z,14.10
2018-05-18T17:29:05.723Z,15.00
2018-05-18T17:31:33.289Z,14.90
2018-05-18T17:34:00.851Z,14.80
2018-05-18T17:36:28.411Z,15.10
2018-05-18T17:38:55.902Z,15.40
2018-05-18T17:41:24.103Z,15.40
2018-05-18T17:43:52.307Z,14.90
2018-05-18T17:46:20.536Z,14.80
2018-05-18T17:48:48.126Z,14.80
2018-05-18T17:51:15.551Z,14.50
2018-05-18T17:53:43.008Z,14.50
2018-05-18T17:56:10.559Z,14.80
2018-05-18T17:58:38.023Z,14.40
2018-05-18T18:01:05.592Z,14.50
2018-05-18T18:03:33.158Z,14.60
2018-05-18T18:06:00.668Z,14.90
2018-05-18T18:08:28.179Z,14.70
2018-05-18T18:10:55.667Z,13.90
2018-05-18T18:13:23.138Z,14.00
2018-05-18T18:15:51.400Z,14.00
2018-05-18T18:18:18.863Z,14.00
2018-05-18T18:20:47.088Z,14.20
2018-05-18T18:23:14.558Z,14.20
2018-05-18T18:25:42.053Z,15.00
2018-05-18T18:28:09.529Z,14.70
2018-05-18T18:30:37.088Z,15.10
2018-05-18T18:33:04.564Z,14.80
2018-05-18T18:35:32.802Z,14.70
2018-05-18T18:38:00.383Z,14.60
2018-05-18T18:40:27.864Z,14.00
2018-05-18T18:42:55.409Z,13.80
2018-05-18T18:45:22.963Z,14.30
2018-05-18T18:47:50.596Z,14.50
2018-05-18T18:50:18.074Z,14.00
2018-05-18T18:52:45.526Z,13.90
2018-05-18T18:55:12.987Z,14.00
2018-05-18T18:57:40.491Z,14.40
2018-05-18T19:00:07.973Z,14.80
2018-05-18T19:02:36.207Z,14.50
2018-05-18T19:05:03.724Z,14.50
2018-05-18T19:07:31.148Z,14.50
2018-05-18T19:09:58.614Z,14.30
2018-05-18T19:12:26.084Z,14.70
2018-05-18T19:14:54.718Z,14.90
2018-05-18T19:17:22.197Z,13.80
2018-05-18T19:19:49.657Z,14.00
2018-05-18T19:22:17.142Z,13.60
2018-05-18T19:24:45.622Z,13.90
2018-05-18T19:27:13.073Z,13.80
2018-05-18T19:29:40.637Z,14.20
2018-05-18T19:32:08.130Z,14.10
2018-05-18T19:34:37.103Z,14.40
2018-05-18T19:37:04.569Z,14.40
2018-05-18T19:39:32.052Z,13.90
2018-05-18T19:41:59.499Z,13.70
2018-05-18T19:44:26.960Z,13.70
2018-05-18T19:46:54.529Z,14.00
2018-05-18T19:49:21.977Z,14.30
2018-05-18T19:51:49.462Z,14.00
2018-05-18T19:54:16.917Z,14.10
2018-05-18T19:56:44.374Z,14.10
2018-05-18T19:59:11.832Z,13.80
2018-05-18T20:01:39.289Z,13.90
2018-05-18T20:04:06.773Z,13.70
2018-05-18T20:06:34.337Z,13.20
2018-05-18T20:09:01.904Z,13.10
2018-05-18T20:11:29.363Z,13.00
2018-05-18T20:13:57.653Z,13.80
2018-05-18T20:16:25.131Z,13.70
2018-05-18T20:18:53.359Z,13.30
2018-05-18T20:21:21.524Z,13.20
2018-05-18T20:23:48.983Z,13.40
2018-05-18T20:26:16.459Z,13.40
2018-05-18T20:28:43.906Z,13.30
2018-05-18T20:31:11.406Z,13.50
2018-05-18T20:33:38.910Z,14.00
2018-05-18T20:36:06.441Z,13.90
2018-05-18T20:38:34.666Z,13.90
2018-05-18T20:41:02.164Z,13.90
2018-05-18T20:43:29.658Z,13.60
2018-05-18T20:45:57.897Z,13.70
2018-05-18T20:48:25.353Z,13.70
2018-05-18T20:50:52.823Z,13.80
2018-05-18T20:53:20.295Z,13.90
2018-05-18T20:55:47.753Z,13.50
2018-05-18T20:58:15.311Z,13.50
2018-05-18T21:00:42.843Z,13.80
2018-05-18T21:03:10.337Z,13.40
2018-05-18T21:05:37.787Z,13.30
2018-05-18T21:08:05.269Z,13.20
2018-05-18T21:10:32.762Z,13.10
2018-05-18T21:13:00.223Z,13.00
2018-05-18T21:15:28.467Z,13.30
2018-05-18T21:17:55.933Z,13.20
2018-05-18T21:20:23.480Z,13.20
2018-05-18T21:22:51.348Z,13.20
2018-05-18T21:25:18.792Z,13.50
2018-05-18T21:27:46.299Z,13.70
2018-05-18T21:30:13.777Z,13.30
2018-05-18T21:32:42.025Z,13.50
2018-05-18T21:35:09.489Z,13.50
2018-05-18T21:37:36.964Z,13.70
2018-05-18T21:40:04.410Z,14.00
2018-05-18T21:42:31.898Z,13.50
2018-05-18T21:44:59.341Z,13.70
2018-05-18T21:47:26.913Z,12.90
2018-05-18T21:49:54.383Z,12.90
2018-05-18T21:52:21.854Z,13.10
2018-05-18T21:54:50.114Z,13.10
2018-05-18T21:57:17.682Z,13.10
2018-05-18T21:59:45.908Z,13.10
2018-05-18T22:02:13.377Z,13.00
2018-05-18T22:04:40.884Z,13.20
2018-05-18T22:07:08.365Z,13.20
2018-05-18T22:09:36.631Z,13.00
2018-05-18T22:12:04.868Z,13.00
2018-05-18T22:14:32.320Z,13.00
2018-05-18T22:16:59.776Z,13.10
2018-05-18T22:19:27.293Z,13.50
2018-05-18T22:21:54.745Z,13.40
2018-05-18T22:24:22.213Z,13.30
2018-05-18T22:26:49.725Z,13.00
2018-05-18T22:29:17.808Z,12.60
2018-05-18T22:31:45.256Z,13.10
2018-05-18T22:34:12.732Z,13.40
2018-05-18T22:36:40.189Z,13.70
2018-05-18T22:39:07.661Z,13.20
2018-05-18T22:41:35.107Z,13.10
2018-05-18T22:44:02.611Z,13.20
2018-05-18T22:46:30.138Z,13.00
2018-05-18T22:48:57.642Z,12.90
2018-05-18T22:51:25.213Z,13.40
2018-05-18T22:53:52.664Z,13.10
2018-05-18T22:56:20.236Z,13.20
2018-05-18T22:58:47.699Z,13.00
2018-05-18T23:01:15.266Z,13.10
2018-05-18T23:03:42.729Z,13.20
2018-05-18T23:06:11.705Z,13.40
2018-05-18T23:08:39.159Z,13.40
2018-05-18T23:11:06.630Z,13.40
2018-05-18T23:13:34.079Z,13.00
2018-05-18T23:16:01.553Z,12.90
2018-05-18T23:18:29.017Z,13.00
2018-05-18T23:20:56.495Z,13.20
2018-05-18T23:23:23.940Z,13.00
2018-05-18T23:25:51.507Z,12.80
2018-05-18T23:28:18.881Z,12.60
2018-05-18T23:30:46.329Z,12.60
2018-05-18T23:33:13.893Z,12.20
2018-05-18T23:35:41.360Z,12.60
2018-05-18T23:38:08.932Z,12.70
2018-05-18T23:40:36.407Z,12.50
2018-05-18T23:43:03.944Z,12.30
2018-05-18T23:45:31.402Z,12.30
2018-05-18T23:47:58.981Z,12.20
2018-05-18T23:50:26.548Z,12.20
2018-05-18T23:52:54.033Z,12.80
2018-05-18T23:55:22.257Z,12.80
2018-05-18T23:57:49.732Z,12.70
